Selby, South Dakota
Current Conditions -  °F | °C
As of 6:52 PM on Friday 19 Dec 2014 (Local Time) from KMBG Reporting Station
Clear Clear  
Wind Chill: 16°   Ceiling: Unl
Heat Index: 25°   Visibility: 10mi
Dew Point: 22°   Wind: 8mph
Humidity: 88%   Direction: 110°ESE
Pressure: 29.93"   Gusts: NA
Location:  45.51°N, 100.03°W
Report Text: KMBG 200052Z AUTO 11007KT 10SM CLR M04/M06 A2993 RMK AO2 SLP160 T10391056
Loading
Personal Weather Stations






























Interactive Weather Map New forecast layout! Learn more

10-Day Weather Forecast

Advertisements
Track Severe Weather on mobile